Time;durP1;ratioP1;P1;durP2;ratioP2;P2;SDS_P1;SDS_P2;PMS_P1;PMS_P2;Temp;Humidity;BMP_temperature;BMP_pressure;BME280_temperature;BME280_humidity;BME280_pressure;Samples;Min_cycle;Max_cycle;Signal;HPM_P1;HPM_P2
2022/05/24 00:00:36;;;;;;;8.00;6.28;;;13.80;99.90;;;;;;5072115;28;20055;-50
2022/05/24 00:03:02;;;;;;;9.98;7.10;;;13.80;99.90;;;;;;5072871;28;20060;-52
2022/05/24 00:05:31;;;;;;;9.02;6.38;;;13.80;99.90;;;;;;5081917;28;20052;-51
2022/05/24 00:07:57;;;;;;;10.73;6.75;;;13.80;99.90;;;;;;5081787;28;20040;-47
2022/05/24 00:10:28;;;;;;;8.45;6.50;;;13.80;99.90;;;;;;5064121;28;20085;-46
2022/05/24 00:12:55;;;;;;;11.15;6.93;;;13.80;99.90;;;;;;5083920;28;20498;-48
2022/05/24 00:15:30;;;;;;;10.23;6.95;;;13.80;99.90;;;;;;5082549;28;20124;-46
2022/05/24 00:17:56;;;;;;;7.47;6.07;;;13.80;99.90;;;;;;5054608;28;20583;-54
2022/05/24 00:20:26;;;;;;;8.38;5.95;;;13.80;99.90;;;;;;5080397;28;20040;-50
2022/05/24 00:22:53;;;;;;;8.35;6.45;;;13.80;99.90;;;;;;5083372;28;20083;-50
2022/05/24 00:25:19;;;;;;;9.02;6.28;;;13.70;99.90;;;;;;5064663;28;20044;-49
2022/05/24 00:27:46;;;;;;;9.77;6.40;;;13.70;99.90;;;;;;5082908;28;20044;-50
2022/05/24 00:30:15;;;;;;;10.05;6.28;;;13.70;99.90;;;;;;5043146;28;20048;-45
2022/05/24 00:32:42;;;;;;;7.78;6.00;;;13.70;99.90;;;;;;5083454;28;20085;-47
2022/05/24 00:35:09;;;;;;;8.85;6.13;;;13.70;99.90;;;;;;5061673;28;20090;-43
2022/05/24 00:37:38;;;;;;;10.95;6.20;;;13.70;99.90;;;;;;5068307;28;20051;-47
2022/05/24 00:40:07;;;;;;;10.13;6.28;;;13.70;99.90;;;;;;5063623;28;20048;-55
2022/05/24 00:42:36;;;;;;;9.82;5.47;;;13.60;99.90;;;;;;5065316;28;20036;-51
2022/05/24 00:45:10;;;;;;;8.65;5.28;;;13.60;99.90;;;;;;5081095;28;20049;-49
2022/05/24 00:47:45;;;;;;;7.47;4.93;;;13.60;99.90;;;;;;5067121;28;20049;-50
2022/05/24 00:50:25;;;;;;;7.93;5.38;;;13.60;99.90;;;;;;5077257;28;20136;-44
2022/05/24 00:53:06;;;;;;;8.50;5.50;;;13.60;99.90;;;;;;5067515;28;20497;-46
2022/05/24 00:55:48;;;;;;;7.28;5.00;;;13.60;99.90;;;;;;5075509;28;20051;-46
2022/05/24 00:58:35;;;;;;;9.20;7.95;;;13.60;99.90;;;;;;5081784;28;20063;-45
2022/05/24 01:01:12;;;;;;;12.85;11.23;;;13.60;99.90;;;;;;5080693;28;20044;-48
2022/05/24 01:03:38;;;;;;;14.95;13.35;;;13.60;99.90;;;;;;5069343;28;20125;-44
2022/05/24 01:06:04;;;;;;;16.85;15.10;;;13.60;99.90;;;;;;5068615;28;20044;-51
2022/05/24 01:08:32;;;;;;;17.25;15.45;;;13.50;99.90;;;;;;5056404;28;20127;-49
2022/05/24 01:11:01;;;;;;;20.42;16.95;;;13.50;99.90;;;;;;5062203;28;20044;-50
2022/05/24 01:13:30;;;;;;;19.02;17.02;;;13.40;99.90;;;;;;5081877;28;20461;-51
2022/05/24 01:15:56;;;;;;;18.10;16.23;;;13.40;99.90;;;;;;5028868;28;20036;-51
2022/05/24 01:18:24;;;;;;;19.95;17.83;;;13.40;99.90;;;;;;5086044;28;20055;-45
2022/05/24 01:21:07;;;;;;;21.63;19.38;;;13.40;99.90;;;;;;5068055;28;20063;-46
2022/05/24 01:23:57;;;;;;;21.45;19.15;;;13.40;99.90;;;;;;5080135;28;20087;-46
2022/05/24 01:26:39;;;;;;;22.00;19.20;;;13.50;99.90;;;;;;5085291;28;20078;-51
2022/05/24 01:29:07;;;;;;;19.13;17.23;;;13.50;99.90;;;;;;5068304;28;20081;-46
2022/05/24 01:37:07;;;;;;;21.77;18.67;;;13.50;99.90;;;;;;5064867;28;20241;-46
2022/05/24 01:39:35;;;;;;;20.17;18.08;;;13.50;99.90;;;;;;5066450;28;20180;-48
2022/05/24 01:42:02;;;;;;;19.35;17.15;;;13.50;99.90;;;;;;5064307;28;20059;-55
2022/05/24 01:44:40;;;;;;;19.30;17.05;;;13.50;99.90;;;;;;5058740;28;20052;-52
2022/05/24 01:47:06;;;;;;;22.15;17.90;;;13.40;99.90;;;;;;5065830;28;20040;-53
2022/05/24 01:49:41;;;;;;;18.15;16.25;;;13.30;99.90;;;;;;5066670;28;20378;-51
2022/05/24 01:52:34;;;;;;;19.40;17.27;;;13.30;99.90;;;;;;5083754;28;20078;-46
2022/05/24 01:55:09;;;;;;;18.45;16.67;;;13.20;99.90;;;;;;5058504;28;20504;-47
2022/05/24 01:57:46;;;;;;;21.02;18.13;;;13.20;99.90;;;;;;5084651;28;20043;-45
2022/05/24 02:00:14;;;;;;;20.27;18.13;;;13.10;99.90;;;;;;5060710;28;20048;-48
2022/05/24 02:02:43;;;;;;;20.63;18.35;;;13.10;99.90;;;;;;5061381;28;20051;-47
2022/05/24 02:05:12;;;;;;;20.98;17.88;;;13.00;99.90;;;;;;5067350;28;20048;-46
2022/05/24 02:07:39;;;;;;;22.90;19.02;;;13.10;99.90;;;;;;5050541;28;20074;-47
2022/05/24 02:10:06;;;;;;;21.40;19.30;;;13.10;99.90;;;;;;5085411;28;20090;-45
2022/05/24 02:12:42;;;;;;;22.85;18.30;;;13.10;99.90;;;;;;5083525;28;20047;-46
2022/05/24 02:15:17;;;;;;;21.88;19.02;;;13.20;99.90;;;;;;5066527;28;20052;-46
2022/05/24 02:18:07;;;;;;;20.33;17.92;;;13.20;99.90;;;;;;5049499;28;20055;-47
2022/05/24 02:20:36;;;;;;;21.98;19.23;;;13.20;99.90;;;;;;5067259;28;20071;-48
2022/05/24 02:23:03;;;;;;;21.60;19.40;;;13.30;99.90;;;;;;5033158;28;20044;-46
2022/05/24 02:25:47;;;;;;;27.42;21.85;;;13.30;99.90;;;;;;5083418;28;20044;-53
2022/05/24 02:28:16;;;;;;;27.80;22.77;;;13.30;99.90;;;;;;5074544;28;20048;-52
2022/05/24 02:30:47;;;;;;;29.92;25.23;;;13.30;99.90;;;;;;5079196;28;20112;-46
2022/05/24 02:33:14;;;;;;;31.55;26.75;;;13.30;99.90;;;;;;5071490;28;20088;-46
2022/05/24 02:35:40;;;;;;;31.85;28.52;;;13.40;99.90;;;;;;5033568;28;20593;-51
2022/05/24 02:38:06;;;;;;;39.38;31.10;;;13.40;99.90;;;;;;5083606;28;20167;-51
2022/05/24 02:43:17;;;;;;;37.40;33.35;;;13.40;99.90;;;;;;5079819;28;20547;-53
2022/05/24 02:45:44;;;;;;;39.42;33.60;;;13.40;99.90;;;;;;5066274;28;20075;-53
2022/05/24 02:48:10;;;;;;;41.45;34.03;;;13.50;99.90;;;;;;5064832;28;20052;-51
2022/05/24 02:50:36;;;;;;;39.30;34.15;;;13.40;99.90;;;;;;5049165;28;20120;-52
2022/05/24 02:53:03;;;;;;;44.33;36.42;;;13.50;99.90;;;;;;5083526;28;20552;-53
2022/05/24 02:55:30;;;;;;;40.50;36.08;;;13.50;99.90;;;;;;5062942;28;20414;-49
2022/05/24 02:57:56;;;;;;;44.08;38.03;;;13.50;99.90;;;;;;5075267;28;20535;-52
2022/05/24 03:00:24;;;;;;;42.05;37.15;;;13.50;99.90;;;;;;5036182;28;20178;-49
2022/05/24 03:02:51;;;;;;;48.83;38.67;;;13.50;99.90;;;;;;5069167;28;20051;-54
2022/05/24 03:05:22;;;;;;;42.72;38.00;;;13.60;99.90;;;;;;5046918;28;20045;-46
2022/05/24 03:10:34;;;;;;;40.85;36.58;;;13.60;99.90;;;;;;5082064;28;20051;-51
2022/05/24 03:15:46;;;;;;;45.60;38.38;;;13.60;99.90;;;;;;5081570;28;20155;-47
2022/05/24 03:18:14;;;;;;;44.33;39.92;;;13.60;99.90;;;;;;5042856;28;20056;-46
2022/05/24 03:20:41;;;;;;;43.88;39.20;;;13.70;99.90;;;;;;5069373;28;20060;-45
2022/05/24 03:23:08;;;;;;;42.33;37.90;;;13.70;99.90;;;;;;5042426;28;20387;-44
2022/05/24 03:25:34;;;;;;;41.85;37.47;;;13.70;99.90;;;;;;5058211;28;20044;-43
2022/05/24 03:28:03;;;;;;;44.35;37.20;;;13.70;99.90;;;;;;5063419;28;20139;-45
2022/05/24 03:30:30;;;;;;;43.22;38.63;;;13.70;99.90;;;;;;5064036;28;20084;-47
2022/05/24 03:32:56;;;;;;;45.42;39.17;;;13.70;99.90;;;;;;5049649;28;20044;-48
2022/05/24 03:35:24;;;;;;;42.15;37.70;;;13.70;99.90;;;;;;5045494;28;20060;-45
2022/05/24 03:37:51;;;;;;;39.85;35.83;;;13.80;99.90;;;;;;5062432;28;20052;-49
2022/05/24 03:40:17;;;;;;;40.35;36.20;;;13.80;99.90;;;;;;5047518;28;20115;-45
2022/05/24 03:42:45;;;;;;;40.10;35.92;;;13.80;99.90;;;;;;5044040;28;20063;-45
2022/05/24 03:45:13;;;;;;;40.95;36.75;;;13.80;99.90;;;;;;5054978;28;20055;-48
2022/05/24 03:47:40;;;;;;;37.78;33.97;;;13.80;99.90;;;;;;5046080;28;20045;-45
2022/05/24 03:50:08;;;;;;;34.60;31.08;;;13.70;99.90;;;;;;5071634;28;20053;-45
2022/05/24 03:52:34;;;;;;;36.53;32.97;;;13.80;99.90;;;;;;5063599;28;20063;-43
2022/05/24 03:55:00;;;;;;;34.80;31.35;;;13.80;99.90;;;;;;5052612;28;20053;-43
2022/05/24 04:00:13;;;;;;;34.67;31.10;;;13.80;99.90;;;;;;5060185;28;20096;-45
2022/05/24 04:02:39;;;;;;;35.00;31.63;;;13.80;99.90;;;;;;5045269;28;20106;-46
2022/05/24 04:05:06;;;;;;;35.35;31.70;;;13.90;99.90;;;;;;5010355;28;20616;-47
2022/05/24 04:07:32;;;;;;;34.92;31.23;;;13.90;99.90;;;;;;5053353;28;20056;-45
2022/05/24 04:09:58;;;;;;;34.47;30.95;;;13.90;99.90;;;;;;5062253;28;20076;-47
2022/05/24 04:12:24;;;;;;;35.03;31.33;;;13.90;99.90;;;;;;5063686;28;20053;-45
2022/05/24 04:14:50;;;;;;;34.08;30.48;;;13.90;99.90;;;;;;5065467;28;20040;-45
2022/05/24 04:17:16;;;;;;;35.63;31.70;;;13.90;99.90;;;;;;5071558;28;20045;-50
2022/05/24 04:19:43;;;;;;;35.15;31.23;;;13.80;99.90;;;;;;5054661;28;20052;-45
2022/05/24 04:22:09;;;;;;;33.20;29.77;;;13.90;99.90;;;;;;5047326;28;20502;-52
2022/05/24 04:24:36;;;;;;;31.92;28.55;;;13.90;99.90;;;;;;5045633;28;20693;-49
2022/05/24 04:27:05;;;;;;;33.25;29.85;;;13.90;99.90;;;;;;5058291;28;20493;-51
2022/05/24 04:29:31;;;;;;;33.67;30.48;;;13.90;99.90;;;;;;5067936;28;20052;-48
2022/05/24 04:31:57;;;;;;;35.00;31.52;;;13.90;99.90;;;;;;5068959;28;20451;-53
2022/05/24 04:34:23;;;;;;;36.00;32.20;;;13.80;99.90;;;;;;5048541;28;20044;-51
2022/05/24 04:36:49;;;;;;;37.30;32.95;;;13.90;99.90;;;;;;5067303;28;20090;-46
2022/05/24 04:39:16;;;;;;;37.42;33.35;;;13.90;99.90;;;;;;5067609;28;20529;-52
2022/05/24 04:44:27;;;;;;;37.83;32.63;;;13.80;99.90;;;;;;5082903;28;20043;-48
2022/05/24 04:47:08;;;;;;;40.47;33.45;;;13.90;99.90;;;;;;5069970;28;20102;-53
2022/05/24 04:49:39;;;;;;;38.28;34.08;;;13.90;99.90;;;;;;5063015;28;20076;-51
2022/05/24 04:52:09;;;;;;;36.42;32.72;;;13.90;99.90;;;;;;5065336;28;20056;-53
2022/05/24 04:54:38;;;;;;;37.85;33.92;;;13.80;99.90;;;;;;5047299;28;20044;-50
2022/05/24 04:57:04;;;;;;;37.40;33.58;;;13.80;99.90;;;;;;5033996;28;20126;-54
2022/05/24 04:59:31;;;;;;;38.80;34.45;;;13.80;99.90;;;;;;5060052;28;20044;-54
2022/05/24 05:01:57;;;;;;;39.10;35.10;;;13.80;99.90;;;;;;5037035;28;20110;-45
2022/05/24 05:04:24;;;;;;;41.92;35.88;;;13.90;99.90;;;;;;5058142;28;20409;-47
2022/05/24 05:06:51;;;;;;;36.92;32.97;;;13.90;99.90;;;;;;5053603;28;20053;-46
2022/05/24 05:09:18;;;;;;;38.20;34.17;;;13.90;99.90;;;;;;5042353;28;20067;-51
2022/05/24 05:11:45;;;;;;;38.08;33.28;;;13.90;99.90;;;;;;5068620;28;20080;-52
2022/05/24 05:14:11;;;;;;;38.13;33.08;;;13.80;99.90;;;;;;5053168;28;20077;-50
2022/05/24 05:16:39;;;;;;;35.47;31.75;;;13.90;99.90;;;;;;5067626;28;20049;-54
2022/05/24 05:19:07;;;;;;;35.90;31.15;;;13.90;99.90;;;;;;5069113;28;20053;-52
2022/05/24 05:21:35;;;;;;;33.70;30.10;;;13.90;99.90;;;;;;5064351;28;20051;-48
2022/05/24 05:24:03;;;;;;;35.90;31.98;;;13.90;99.90;;;;;;5065876;28;20053;-51
2022/05/24 05:26:29;;;;;;;30.60;26.00;;;13.90;99.90;;;;;;5082190;28;20087;-57
2022/05/24 05:28:55;;;;;;;30.80;26.67;;;13.90;99.90;;;;;;5064994;28;20051;-56
2022/05/24 05:31:26;;;;;;;28.77;25.70;;;13.90;99.90;;;;;;5066634;28;20137;-57
2022/05/24 05:33:57;;;;;;;27.87;24.60;;;14.00;99.90;;;;;;5055027;28;20056;-46
2022/05/24 05:36:27;;;;;;;30.20;26.17;;;14.00;99.90;;;;;;5054686;28;20860;-47
2022/05/24 05:38:54;;;;;;;29.60;26.38;;;14.00;99.90;;;;;;5062194;28;20052;-48
2022/05/24 05:41:24;;;;;;;28.52;25.48;;;14.00;99.90;;;;;;5060669;28;20052;-54
2022/05/24 05:43:51;;;;;;;30.17;25.35;;;14.00;99.90;;;;;;5062988;28;20049;-46
2022/05/24 05:46:18;;;;;;;29.45;22.98;;;14.00;99.90;;;;;;5045993;28;20055;-45
2022/05/24 05:48:45;;;;;;;26.35;22.85;;;14.00;99.90;;;;;;5062596;28;20052;-45
2022/05/24 05:51:13;;;;;;;28.13;22.65;;;14.00;99.90;;;;;;5061331;28;20044;-47
2022/05/24 05:53:40;;;;;;;29.83;20.60;;;13.90;99.90;;;;;;5075624;28;20056;-43
2022/05/24 05:56:18;;;;;;;25.13;20.27;;;13.80;99.90;;;;;;5013418;28;20049;-44
2022/05/24 05:58:45;;;;;;;26.35;22.13;;;13.90;99.90;;;;;;5073029;28;20056;-45
2022/05/24 06:01:16;;;;;;;27.65;20.77;;;13.90;99.90;;;;;;5036679;28;20437;-46
2022/05/24 06:03:43;;;;;;;24.52;21.90;;;13.90;99.90;;;;;;5040473;28;20075;-56
2022/05/24 06:06:14;;;;;;;23.42;20.90;;;13.90;99.90;;;;;;5039056;28;20083;-56
2022/05/24 06:08:40;;;;;;;27.90;21.20;;;13.90;99.90;;;;;;5062092;28;20051;-46
2022/05/24 06:11:06;;;;;;;25.27;20.65;;;13.90;99.90;;;;;;5055648;28;20045;-47
2022/05/24 06:13:33;;;;;;;25.55;21.00;;;13.90;99.90;;;;;;5073594;28;20133;-46
2022/05/24 06:15:59;;;;;;;26.75;21.42;;;13.90;99.90;;;;;;5057599;28;20056;-50
2022/05/24 06:18:25;;;;;;;24.67;22.00;;;14.00;99.90;;;;;;5057026;28;20040;-49
2022/05/24 06:20:51;;;;;;;30.70;22.05;;;14.00;99.90;;;;;;5061316;28;20119;-51
2022/05/24 06:23:17;;;;;;;28.38;22.98;;;14.00;99.90;;;;;;5026135;28;1160724;-47
2022/05/24 06:25:44;;;;;;;27.58;22.52;;;14.00;99.90;;;;;;5092583;28;20078;-51
2022/05/24 06:28:15;;;;;;;22.92;20.38;;;14.00;99.90;;;;;;5076151;28;20062;-48
2022/05/24 06:30:42;;;;;;;23.00;20.10;;;14.00;99.90;;;;;;5046961;28;20811;-50
2022/05/24 06:33:11;;;;;;;27.00;20.50;;;14.00;99.90;;;;;;5080493;28;20102;-47
2022/05/24 06:35:40;;;;;;;23.67;21.15;;;14.00;99.90;;;;;;5044042;28;20040;-56
2022/05/24 06:38:07;;;;;;;23.85;20.42;;;14.10;99.90;;;;;;5061800;28;20050;-57
2022/05/24 06:40:34;;;;;;;24.45;20.85;;;14.20;99.90;;;;;;5080897;28;20071;-56
2022/05/24 06:43:00;;;;;;;23.80;19.13;;;14.20;99.90;;;;;;5070276;28;20059;-54
2022/05/24 06:45:26;;;;;;;24.77;20.40;;;14.20;99.90;;;;;;5083584;28;20046;-55
2022/05/24 06:47:52;;;;;;;24.30;21.70;;;14.20;99.90;;;;;;5063606;28;20044;-50
2022/05/24 06:50:20;;;;;;;25.90;22.10;;;14.20;99.90;;;;;;5083876;28;20087;-48
2022/05/24 06:52:47;;;;;;;23.55;21.05;;;14.20;99.90;;;;;;5086272;28;20086;-48
2022/05/24 06:55:16;;;;;;;23.85;21.27;;;14.30;99.90;;;;;;5064179;28;20615;-49
2022/05/24 06:57:42;;;;;;;22.48;20.05;;;14.30;99.90;;;;;;5067612;28;20051;-47
2022/05/24 07:03:08;;;;;;;21.45;18.83;;;14.30;99.90;;;;;;5083704;28;20501;-48
2022/05/24 07:05:34;;;;;;;23.25;19.65;;;14.40;99.90;;;;;;5065926;28;20112;-49
2022/05/24 07:08:01;;;;;;;24.02;19.02;;;14.30;99.90;;;;;;5092062;28;20040;-47
2022/05/24 07:10:31;;;;;;;23.88;18.83;;;14.40;99.90;;;;;;5064840;28;20480;-47
2022/05/24 07:13:07;;;;;;;21.42;17.40;;;14.40;99.90;;;;;;5044391;28;20622;-51
2022/05/24 07:15:34;;;;;;;20.13;17.67;;;14.40;99.90;;;;;;5075169;28;20118;-56
2022/05/24 07:18:00;;;;;;;21.13;16.60;;;14.40;99.90;;;;;;5064819;28;20055;-55
2022/05/24 07:20:33;;;;;;;19.92;15.45;;;14.30;99.90;;;;;;5049541;28;20054;-55
2022/05/24 07:23:17;;;;;;;19.33;17.25;;;14.20;99.90;;;;;;5063553;28;20463;-56
2022/05/24 07:25:44;;;;;;;22.65;17.27;;;14.10;99.90;;;;;;5081660;28;20048;-50
2022/05/24 07:28:12;;;;;;;20.70;17.90;;;14.10;99.90;;;;;;5065075;28;20519;-45
2022/05/24 07:30:39;;;;;;;18.98;16.70;;;14.10;99.90;;;;;;5013683;28;20082;-49
2022/05/24 07:33:06;;;;;;;22.45;17.75;;;14.00;99.90;;;;;;5059572;28;20056;-57
2022/05/24 07:35:32;;;;;;;18.98;17.15;;;14.10;99.90;;;;;;5050519;28;20050;-56
2022/05/24 07:37:58;;;;;;;18.45;16.63;;;14.10;99.90;;;;;;5054575;28;20047;-57
2022/05/24 07:45:59;;;;;;;21.40;18.00;;;14.10;99.90;;;;;;5083152;28;20212;-48
2022/05/24 07:48:25;;;;;;;21.27;18.70;;;14.10;99.90;;;;;;5099528;28;20055;-48
2022/05/24 07:50:51;;;;;;;20.65;18.02;;;14.10;99.90;;;;;;5058513;28;20056;-49
2022/05/24 07:53:18;;;;;;;26.48;20.35;;;14.10;99.90;;;;;;5092975;28;20449;-48
2022/05/24 07:55:45;;;;;;;21.50;17.52;;;14.30;99.90;;;;;;5067561;28;20044;-45
2022/05/24 07:58:12;;;;;;;22.13;18.20;;;14.20;99.90;;;;;;5080502;28;20044;-48
2022/05/24 08:00:38;;;;;;;21.23;19.15;;;14.30;99.90;;;;;;5072871;28;20063;-48
2022/05/24 08:03:06;;;;;;;19.88;17.80;;;14.40;99.90;;;;;;5080129;28;20472;-48
2022/05/24 08:05:34;;;;;;;19.65;17.60;;;14.50;99.90;;;;;;5065217;28;20552;-51
2022/05/24 08:08:00;;;;;;;20.83;16.15;;;14.70;99.90;;;;;;5081106;28;20072;-46
2022/05/24 08:10:28;;;;;;;18.27;15.80;;;14.70;99.90;;;;;;5083365;28;20131;-49
2022/05/24 08:12:55;;;;;;;19.40;16.35;;;14.60;99.90;;;;;;5096064;28;20075;-51
2022/05/24 08:15:23;;;;;;;19.67;16.23;;;14.80;99.90;;;;;;5062678;28;20614;-53
2022/05/24 08:17:50;;;;;;;18.00;15.23;;;15.00;99.90;;;;;;5076515;28;20578;-49
2022/05/24 08:20:17;;;;;;;16.85;15.10;;;15.30;99.90;;;;;;5094629;28;20158;-48
2022/05/24 08:22:44;;;;;;;18.02;14.48;;;15.40;99.90;;;;;;5054247;28;20040;-52
2022/05/24 08:25:11;;;;;;;15.63;13.95;;;15.60;99.90;;;;;;5092900;28;20059;-49
2022/05/24 08:27:37;;;;;;;17.20;13.52;;;15.70;99.90;;;;;;5070223;28;20040;-59
2022/05/24 08:30:06;;;;;;;22.33;12.70;;;15.80;99.90;;;;;;5081409;28;20350;-56
2022/05/24 08:32:33;;;;;;;34.45;13.57;;;15.70;99.90;;;;;;5064669;28;20036;-49
2022/05/24 08:35:00;;;;;;;14.23;10.68;;;16.10;99.90;;;;;;5077150;28;20085;-53
2022/05/24 08:37:27;;;;;;;14.18;9.05;;;16.70;99.90;;;;;;5087226;28;20045;-59
2022/05/24 08:39:57;;;;;;;11.52;8.02;;;16.80;99.90;;;;;;5064562;28;20082;-52
2022/05/24 08:42:38;;;;;;;7.20;5.80;;;16.50;99.90;;;;;;5081888;28;20047;-52
2022/05/24 08:48:25;;;;;;;11.43;6.90;;;16.20;99.90;;;;;;5076302;28;20072;-59
2022/05/24 08:51:10;;;;;;;8.23;6.03;;;16.00;99.90;;;;;;5045734;28;20833;-59
2022/05/24 08:53:46;;;;;;;9.15;4.90;;;16.00;99.90;;;;;;5093797;28;20055;-54
2022/05/24 08:56:38;;;;;;;7.75;4.97;;;16.50;99.90;;;;;;5064422;28;20085;-58
2022/05/24 08:59:09;;;;;;;;;;;16.80;99.90;;;;;;5038861;28;20075;-59
2022/05/24 09:01:35;;;;;;;9.63;5.85;;;17.20;99.90;;;;;;5016696;28;19924;-60
2022/05/24 09:04:12;;;;;;;5.78;4.60;;;17.40;99.90;;;;;;5081761;28;20702;-59
2022/05/24 09:07:07;;;;;;;7.22;4.15;;;18.00;99.90;;;;;;5072667;28;20032;-59
2022/05/24 09:09:39;;;;;;;7.88;5.07;;;17.80;99.90;;;;;;5064938;28;20163;-58
2022/05/24 09:12:11;;;;;;;10.27;4.97;;;17.40;99.90;;;;;;5083566;28;20415;-59
2022/05/24 09:15:10;;;;;;;6.60;4.57;;;17.30;99.90;;;;;;5064985;28;20083;-59
2022/05/24 09:18:07;;;;;;;7.32;4.38;;;17.60;99.90;;;;;;5021319;28;20055;-59
2022/05/24 09:20:40;;;;;;;10.23;4.20;;;17.40;99.90;;;;;;5065221;28;20055;-60
2022/05/24 09:23:30;;;;;;;6.57;4.60;;;17.10;99.90;;;;;;5086624;28;20051;-59
2022/05/24 09:26:06;;;;;;;8.75;4.53;;;16.60;99.90;;;;;;5067840;28;20058;-59
2022/05/24 09:28:52;;;;;;;8.10;4.78;;;16.50;99.90;;;;;;5097426;28;20040;-59
2022/05/24 09:31:39;;;;;;;7.32;4.78;;;16.30;99.90;;;;;;5083028;28;20046;-57
2022/05/24 09:34:30;;;;;;;6.72;4.43;;;16.30;99.90;;;;;;5082009;28;20055;-55
2022/05/24 09:37:22;;;;;;;7.25;4.40;;;16.10;99.90;;;;;;5070998;28;20081;-53
2022/05/24 09:40:19;;;;;;;7.65;4.70;;;16.10;99.90;;;;;;5071138;28;20084;-58
2022/05/24 09:42:46;;;;;;;7.80;4.70;;;16.00;99.90;;;;;;5078330;28;20586;-59
2022/05/24 09:45:20;;;;;;;9.43;5.40;;;16.00;99.90;;;;;;5062694;28;20056;-59
2022/05/24 09:47:59;;;;;;;9.05;4.68;;;16.10;99.90;;;;;;5083168;28;20183;-53
2022/05/24 09:50:35;;;;;;;7.15;4.60;;;16.40;99.90;;;;;;5065041;28;20046;-55
2022/05/24 09:53:04;;;;;;;9.32;5.57;;;16.60;99.90;;;;;;5064248;28;20040;-52
2022/05/24 09:55:48;;;;;;;7.43;4.85;;;17.00;99.90;;;;;;5065209;28;20046;-50
2022/05/24 09:58:32;;;;;;;5.28;4.68;;;17.20;99.90;;;;;;5065595;28;20059;-55
2022/05/24 10:01:30;;;;;;;8.93;4.70;;;17.30;99.90;;;;;;5080664;28;20036;-54
2022/05/24 10:04:13;;;;;;;9.45;5.25;;;16.90;99.90;;;;;;5060343;28;20082;-54
2022/05/24 10:06:41;;;;;;;6.70;5.25;;;16.90;99.90;;;;;;5085219;28;20048;-50
2022/05/24 10:09:29;;;;;;;5.03;3.85;;;17.10;99.90;;;;;;5077115;28;20075;-53
2022/05/24 10:11:56;;;;;;;5.05;2.85;;;16.80;99.90;;;;;;5078648;28;20043;-50
2022/05/24 10:14:28;;;;;;;3.33;2.00;;;16.90;99.90;;;;;;5081858;28;20040;-54
2022/05/24 10:17:23;;;;;;;4.68;1.83;;;16.60;99.90;;;;;;5082768;28;20059;-53
2022/05/24 10:19:53;;;;;;;4.53;1.70;;;16.80;99.90;;;;;;5011813;28;20427;-51
2022/05/24 10:22:32;;;;;;;4.35;1.40;;;17.50;99.90;;;;;;5067182;28;20153;-50
2022/05/24 10:25:19;;;;;;;2.28;1.40;;;17.90;99.90;;;;;;5065566;28;20083;-52
2022/05/24 10:27:52;;;;;;;4.22;1.67;;;17.60;99.90;;;;;;5063392;28;20040;-53
2022/05/24 10:30:41;;;;;;;4.03;1.48;;;17.90;99.90;;;;;;5048243;28;20044;-53
2022/05/24 10:39:32;;;;;;;3.97;1.58;;;17.50;99.90;;;;;;5082908;28;20170;-54
2022/05/24 10:42:14;;;;;;;3.20;1.77;;;17.50;99.90;;;;;;5068801;28;20056;-52
2022/05/24 10:45:04;;;;;;;5.78;2.28;;;17.40;99.90;;;;;;5099643;28;20143;-52
2022/05/24 10:47:50;;;;;;;4.28;2.20;;;16.60;99.90;;;;;;5053814;28;20040;-54
2022/05/24 10:50:21;;;;;;;3.67;2.05;;;15.90;99.90;;;;;;5083909;28;20734;-49
2022/05/24 10:53:02;;;;;;;5.07;2.10;;;14.90;99.90;;;;;;5081492;28;20511;-53
2022/05/24 10:55:37;;;;;;;4.18;1.85;;;14.40;99.90;;;;;;5083331;28;20735;-56
2022/05/24 10:58:09;;;;;;;2.97;1.60;;;14.30;99.90;;;;;;5063085;28;20064;-56
2022/05/24 11:00:44;;;;;;;3.08;0.90;;;14.10;99.90;;;;;;5058948;28;20058;-57
2022/05/24 11:03:32;;;;;;;1.63;1.00;;;13.90;99.90;;;;;;5051487;28;20583;-56
2022/05/24 11:06:15;;;;;;;3.33;1.02;;;13.60;99.90;;;;;;5063088;28;20048;-57
2022/05/24 11:08:48;;;;;;;10.68;2.72;;;13.50;99.90;;;;;;5063742;28;20059;-55
2022/05/24 11:11:25;;;;;;;3.33;1.58;;;13.50;99.90;;;;;;5076967;28;20040;-52
2022/05/24 11:14:13;;;;;;;3.92;1.73;;;13.30;99.90;;;;;;5086128;28;20812;-50
2022/05/24 11:16:46;;;;;;;3.28;1.85;;;13.10;99.90;;;;;;5018865;28;20052;-49
2022/05/24 11:19:21;;;;;;;21.88;4.45;;;13.00;99.90;;;;;;5082673;28;20040;-49
2022/05/24 11:21:53;;;;;;;16.63;3.70;;;13.00;99.90;;;;;;5067564;28;20047;-49
2022/05/24 11:24:33;;;;;;;4.75;2.60;;;13.20;99.90;;;;;;5050629;28;20086;-56
2022/05/24 11:27:01;;;;;;;3.35;2.50;;;13.20;99.90;;;;;;5073294;28;20048;-55
2022/05/24 11:29:33;;;;;;;6.45;2.67;;;13.20;99.90;;;;;;5090324;28;20484;-56
2022/05/24 11:32:01;;;;;;;4.78;3.60;;;13.20;99.90;;;;;;5062849;28;20058;-54
2022/05/24 11:34:31;;;;;;;6.80;3.50;;;13.40;99.90;;;;;;5033576;28;20260;-54
2022/05/24 11:37:21;;;;;;;4.53;3.53;;;13.30;99.90;;;;;;5067825;28;20497;-47
2022/05/24 11:39:47;;;;;;;6.10;4.03;;;13.40;99.90;;;;;;5075868;28;20051;-48
2022/05/24 11:42:24;;;;;;;6.43;4.40;;;13.40;99.90;;;;;;5077926;28;20117;-51
2022/05/24 11:44:53;;;;;;;5.57;3.13;;;13.40;99.90;;;;;;5064037;28;20419;-50
2022/05/24 11:47:34;;;;;;;5.57;3.53;;;13.50;99.90;;;;;;5063846;28;20618;-53
2022/05/24 11:50:05;;;;;;;4.80;3.03;;;13.60;99.90;;;;;;5076663;28;20036;-54
2022/05/24 11:52:43;;;;;;;5.25;3.13;;;13.70;99.90;;;;;;5056564;28;20059;-52
2022/05/24 11:55:09;;;;;;;4.80;2.17;;;13.90;99.90;;;;;;5045283;28;20052;-54
2022/05/24 11:57:42;;;;;;;3.33;2.22;;;14.10;99.90;;;;;;5050581;28;20131;-53
2022/05/24 12:00:11;;;;;;;5.55;2.78;;;14.80;99.90;;;;;;5055617;28;20052;-52
2022/05/24 12:08:38;;;;;;;3.90;2.08;;;15.30;99.90;;;;;;5081865;28;20051;-49
2022/05/24 12:11:04;;;;;;;3.67;2.38;;;15.10;99.90;;;;;;5064297;28;20083;-50
2022/05/24 12:13:38;;;;;;;3.58;2.00;;;16.00;99.90;;;;;;5082100;28;20374;-50
2022/05/24 12:16:26;;;;;;;4.75;2.60;;;16.20;99.90;;;;;;5045672;28;20716;-50
2022/05/24 12:18:59;;;;;;;5.97;3.05;;;16.50;99.90;;;;;;5062266;28;20047;-52
2022/05/24 12:22:12;;;;;;;5.05;2.15;;;17.20;99.90;;;;;;5071824;28;20088;-47
2022/05/24 12:24:38;;;;;;;5.05;2.05;;;17.40;99.90;;;;;;5023188;28;20676;-51
2022/05/24 12:27:19;;;;;;;4.03;1.80;;;17.20;99.90;;;;;;5078161;28;20058;-52
2022/05/24 12:30:00;;;;;;;3.70;1.85;;;17.60;99.90;;;;;;5017430;28;20043;-55
2022/05/24 12:32:30;;;;;;;2.63;1.75;;;17.40;99.90;;;;;;5066414;28;20055;-55
2022/05/24 12:35:06;;;;;;;3.97;1.85;;;18.30;99.90;;;;;;5083141;28;20066;-56
2022/05/24 12:37:35;;;;;;;2.40;1.42;;;18.60;99.90;;;;;;5069253;28;20058;-57
2022/05/24 12:40:15;;;;;;;3.08;1.48;;;19.00;99.90;;;;;;5071157;28;20051;-55
2022/05/24 12:43:07;;;;;;;4.25;1.30;;;19.00;99.90;;;;;;5061646;28;20135;-47
2022/05/24 12:45:39;;;;;;;4.57;1.42;;;18.30;99.90;;;;;;5083380;28;20050;-52
2022/05/24 12:48:17;;;;;;;4.03;0.95;;;18.30;99.90;;;;;;5079433;28;20055;-51
2022/05/24 12:50:43;;;;;;;4.03;1.25;;;18.10;99.90;;;;;;5083738;28;20123;-47
2022/05/24 12:53:19;;;;;;;3.25;1.33;;;17.40;99.90;;;;;;5069524;28;20052;-48
2022/05/24 12:55:59;;;;;;;2.28;1.10;;;16.90;99.90;;;;;;5066637;28;20147;-58
2022/05/24 12:58:29;;;;;;;3.00;1.02;;;16.20;99.90;;;;;;5065498;28;20055;-50
2022/05/24 13:01:20;;;;;;;3.85;1.63;;;15.80;99.90;;;;;;5081844;28;20079;-52
2022/05/24 13:03:52;;;;;;;3.20;0.80;;;15.60;99.90;;;;;;5071715;28;20105;-49
2022/05/24 13:06:31;;;;;;;4.22;1.38;;;15.50;99.90;;;;;;5066131;28;20043;-51
2022/05/24 13:09:16;;;;;;;3.97;1.20;;;15.50;99.90;;;;;;5081965;28;20550;-49
2022/05/24 13:11:44;;;;;;;3.92;1.10;;;15.50;99.90;;;;;;5036756;28;20055;-52
2022/05/24 13:14:20;;;;;;;4.10;1.25;;;15.80;99.90;;;;;;5069592;28;20052;-50
2022/05/24 13:16:46;;;;;;;3.67;1.23;;;16.10;99.90;;;;;;5062743;28;20124;-52
2022/05/24 13:19:13;;;;;;;2.80;1.20;;;16.40;99.90;;;;;;5065779;28;20520;-51
2022/05/24 13:21:39;;;;;;;1.85;1.15;;;16.30;99.90;;;;;;5068098;28;20040;-49
2022/05/24 13:24:11;;;;;;;6.65;1.60;;;16.40;99.90;;;;;;5097849;28;20040;-52
2022/05/24 13:27:01;;;;;;;3.92;1.30;;;16.50;99.90;;;;;;5082220;28;20047;-50
2022/05/24 13:29:29;;;;;;;2.30;1.27;;;16.70;99.90;;;;;;5065368;28;20557;-49
2022/05/24 13:34:59;;;;;;;2.33;1.23;;;18.30;99.90;;;;;;5070758;28;20075;-52
2022/05/24 13:37:46;;;;;;;3.08;1.35;;;19.50;99.90;;;;;;5085499;28;20050;-53
2022/05/24 13:40:12;;;;;;;4.30;1.60;;;20.10;99.90;;;;;;5088491;28;20869;-51
2022/05/24 13:42:53;;;;;;;4.28;1.70;;;20.00;99.90;;;;;;5080306;28;20055;-50
2022/05/24 13:45:21;;;;;;;2.58;1.45;;;19.90;99.90;;;;;;5082019;28;20048;-50